createdAt,value
2022-09-03T00:00:26.040Z,38.80
2022-09-03T00:03:06.465Z,38.90
2022-09-03T00:05:49.759Z,39.00
2022-09-03T00:08:24.996Z,39.10
2022-09-03T00:10:57.304Z,39.30
2022-09-03T00:13:30.745Z,39.30
2022-09-03T00:15:59.888Z,39.40
2022-09-03T00:18:34.990Z,39.50
2022-09-03T00:21:10.602Z,39.50
2022-09-03T00:23:40.813Z,39.60
2022-09-03T00:26:13.967Z,39.60
2022-09-03T00:29:06.912Z,39.70
2022-09-03T00:31:42.864Z,39.80
2022-09-03T00:34:31.417Z,39.80
2022-09-03T00:36:58.549Z,39.90
2022-09-03T00:39:27.892Z,40.00
2022-09-03T00:41:59.402Z,40.20
2022-09-03T00:44:52.778Z,40.20
2022-09-03T00:47:40.938Z,40.40
2022-09-03T00:50:29.509Z,40.30
2022-09-03T00:53:12.916Z,40.40
2022-09-03T00:55:58.510Z,40.40
2022-09-03T00:58:37.856Z,40.60
2022-09-03T01:01:24.090Z,40.50
2022-09-03T01:04:35.582Z,40.60
2022-09-03T01:07:18.679Z,40.70
2022-09-03T01:09:58.703Z,40.70
2022-09-03T01:12:51.342Z,40.70
2022-09-03T01:15:40.125Z,40.70
2022-09-03T01:18:23.075Z,40.70
2022-09-03T01:20:55.796Z,40.80
2022-09-03T01:24:00.066Z,40.90
2022-09-03T01:26:53.374Z,41.00
2022-09-03T01:29:23.394Z,41.00
2022-09-03T01:32:14.996Z,41.10
2022-09-03T01:34:54.047Z,41.10
2022-09-03T01:38:10.061Z,41.20
2022-09-03T01:41:24.101Z,41.20
2022-09-03T01:44:07.283Z,41.20
2022-09-03T01:46:41.371Z,41.10
2022-09-03T01:49:28.999Z,41.20
2022-09-03T01:52:12.610Z,41.30
2022-09-03T01:54:53.349Z,41.40
2022-09-03T01:57:39.504Z,41.40
2022-09-03T02:00:13.867Z,41.40
2022-09-03T02:02:43.549Z,41.40
2022-09-03T02:05:17.681Z,41.40
2022-09-03T02:08:08.442Z,41.50
2022-09-03T02:10:49.410Z,41.60
2022-09-03T02:13:26.876Z,41.70
2022-09-03T02:16:00.159Z,41.80
2022-09-03T02:18:33.541Z,41.80
2022-09-03T02:21:01.065Z,41.90
2022-09-03T02:23:29.064Z,41.90
2022-09-03T02:25:59.680Z,42.00
2022-09-03T02:28:28.733Z,42.10
2022-09-03T02:30:56.942Z,42.20
2022-09-03T02:33:24.119Z,42.20
2022-09-03T02:35:51.327Z,42.30
2022-09-03T02:38:28.409Z,42.30
2022-09-03T02:40:55.891Z,42.40
2022-09-03T02:43:31.078Z,42.50
2022-09-03T02:46:02.840Z,42.50
2022-09-03T02:48:29.988Z,42.70
2022-09-03T02:50:56.882Z,42.60
2022-09-03T02:53:23.795Z,42.70
2022-09-03T02:55:50.854Z,42.80
2022-09-03T02:58:17.658Z,42.90
2022-09-03T03:00:45.161Z,42.90
2022-09-03T03:03:12.141Z,42.90
2022-09-03T03:05:55.676Z,42.90
2022-09-03T03:08:25.798Z,43.00
2022-09-03T03:10:54.186Z,43.00
2022-09-03T03:13:21.870Z,43.00
2022-09-03T03:15:49.703Z,43.10
2022-09-03T03:18:17.555Z,43.20
2022-09-03T03:20:44.701Z,43.30
2022-09-03T03:23:11.700Z,43.30
2022-09-03T03:25:39.585Z,43.40
2022-09-03T03:28:07.524Z,43.50
2022-09-03T03:30:37.750Z,43.50
2022-09-03T03:33:05.035Z,43.60
2022-09-03T03:35:31.980Z,43.70
2022-09-03T03:37:59.492Z,43.70
2022-09-03T03:40:27.091Z,43.70
2022-09-03T03:42:54.601Z,43.80
2022-09-03T03:45:21.945Z,43.80
2022-09-03T03:47:48.806Z,43.90
2022-09-03T03:50:17.177Z,43.90
2022-09-03T03:52:44.105Z,44.00
2022-09-03T03:55:11.087Z,44.00
2022-09-03T03:57:42.651Z,44.00
2022-09-03T04:00:10.030Z,44.10
2022-09-03T04:02:42.679Z,44.10
2022-09-03T04:05:10.005Z,44.20
2022-09-03T04:07:38.388Z,44.20
2022-09-03T04:10:05.746Z,44.30
2022-09-03T04:12:33.224Z,44.40
2022-09-03T04:15:00.055Z,44.40
2022-09-03T04:17:28.174Z,44.50
2022-09-03T04:19:54.925Z,44.60
2022-09-03T04:22:22.583Z,44.60
2022-09-03T04:24:49.539Z,44.80
2022-09-03T04:27:16.596Z,44.70
2022-09-03T04:29:43.471Z,44.80
2022-09-03T04:32:28.852Z,44.70
2022-09-03T04:34:55.902Z,44.80
2022-09-03T04:37:22.908Z,44.80
2022-09-03T04:39:49.886Z,44.80
2022-09-03T04:42:16.796Z,44.90
2022-09-03T04:44:43.585Z,44.90
2022-09-03T04:47:10.703Z,45.00
2022-09-03T04:49:37.660Z,45.00
2022-09-03T04:52:04.535Z,45.10
2022-09-03T04:54:31.555Z,45.10
2022-09-03T04:56:58.532Z,45.20
2022-09-03T04:59:25.642Z,45.30
2022-09-03T05:01:56.989Z,45.30
2022-09-03T05:04:24.025Z,45.40
2022-09-03T05:06:50.885Z,45.40
2022-09-03T05:09:17.802Z,45.50
2022-09-03T05:11:45.026Z,45.50
2022-09-03T05:14:12.702Z,45.50
2022-09-03T05:16:40.040Z,45.60
2022-09-03T05:19:08.100Z,45.60
2022-09-03T05:21:38.270Z,45.60
2022-09-03T05:24:05.755Z,45.70
2022-09-03T05:26:37.739Z,45.70
2022-09-03T05:29:07.754Z,45.80
2022-09-03T05:31:39.285Z,45.90
2022-09-03T05:34:07.699Z,46.00
2022-09-03T05:36:36.929Z,46.10
2022-09-03T05:39:05.343Z,46.10
2022-09-03T05:41:34.094Z,46.20
2022-09-03T05:44:01.489Z,46.20
2022-09-03T05:46:34.170Z,46.30
2022-09-03T05:49:02.465Z,46.40
2022-09-03T05:51:30.842Z,46.40
2022-09-03T05:53:58.700Z,46.40
2022-09-03T05:56:27.677Z,46.30
2022-09-03T05:58:57.233Z,46.50
2022-09-03T06:01:32.760Z,46.50
2022-09-03T06:04:02.014Z,46.50
2022-09-03T06:06:31.710Z,46.50
2022-09-03T06:09:02.265Z,46.60
2022-09-03T06:11:30.091Z,46.60
2022-09-03T06:13:58.308Z,46.60
2022-09-03T06:16:30.754Z,46.70
2022-09-03T06:19:00.613Z,46.60
2022-09-03T06:21:27.656Z,46.60
2022-09-03T06:23:59.806Z,46.80
2022-09-03T06:26:29.519Z,46.80
2022-09-03T06:28:57.357Z,46.90
2022-09-03T06:31:25.190Z,47.00
2022-09-03T06:33:54.515Z,47.00
2022-09-03T06:36:22.781Z,47.10
2022-09-03T06:38:55.833Z,47.10
2022-09-03T06:41:30.235Z,47.10
2022-09-03T06:44:05.706Z,47.10
2022-09-03T06:46:35.200Z,47.00
2022-09-03T06:49:02.376Z,47.00
2022-09-03T06:51:31.711Z,47.10
2022-09-03T06:54:06.481Z,47.10
2022-09-03T06:56:39.891Z,47.10
2022-09-03T06:59:13.277Z,47.10
2022-09-03T07:01:44.497Z,47.20
2022-09-03T07:04:13.754Z,47.30
2022-09-03T07:06:42.877Z,47.20
2022-09-03T07:09:11.605Z,47.00
2022-09-03T07:11:46.787Z,47.00
2022-09-03T07:14:15.137Z,46.80
2022-09-03T07:16:43.358Z,46.70
2022-09-03T07:19:10.687Z,46.60
2022-09-03T07:21:37.799Z,46.40
2022-09-03T07:24:06.013Z,46.30
2022-09-03T07:26:48.567Z,46.30
2022-09-03T07:29:19.951Z,46.20
2022-09-03T07:31:47.495Z,46.20
2022-09-03T07:34:16.389Z,46.10
2022-09-03T07:36:51.287Z,46.10
2022-09-03T07:39:18.872Z,46.00
2022-09-03T07:41:46.621Z,46.00
2022-09-03T07:44:16.265Z,45.80
2022-09-03T07:46:45.487Z,45.70
2022-09-03T07:49:12.651Z,45.60
2022-09-03T07:51:40.037Z,45.30
2022-09-03T07:54:10.693Z,45.20
2022-09-03T07:56:39.660Z,45.00
2022-09-03T07:59:06.501Z,44.70
2022-09-03T08:01:34.578Z,44.40
2022-09-03T08:04:02.928Z,44.20
2022-09-03T08:06:31.276Z,44.00
2022-09-03T08:09:04.463Z,43.70
2022-09-03T08:11:35.054Z,43.50
2022-09-03T08:14:10.714Z,43.40
2022-09-03T08:16:43.309Z,43.30
2022-09-03T08:19:12.098Z,42.90
2022-09-03T08:21:41.813Z,42.70
2022-09-03T08:24:08.867Z,42.40
2022-09-03T08:26:44.098Z,42.30
2022-09-03T08:29:13.416Z,42.30
2022-09-03T08:31:40.342Z,41.80
2022-09-03T08:34:08.038Z,41.70
2022-09-03T08:36:36.917Z,41.70
2022-09-03T08:39:10.028Z,41.50
2022-09-03T08:42:01.509Z,41.40
2022-09-03T08:44:40.071Z,41.30
2022-09-03T08:47:18.726Z,41.10
2022-09-03T08:49:52.055Z,40.80
2022-09-03T08:52:29.420Z,40.70
2022-09-03T08:55:27.122Z,40.60
2022-09-03T08:58:14.075Z,40.30
2022-09-03T09:01:01.457Z,40.20
2022-09-03T09:03:50.142Z,40.00
2022-09-03T09:06:30.466Z,39.90
2022-09-03T09:09:22.081Z,39.60
2022-09-03T09:12:07.770Z,39.30
2022-09-03T09:14:49.297Z,39.30
2022-09-03T09:17:25.000Z,39.20
2022-09-03T09:20:20.479Z,39.10
2022-09-03T09:22:49.692Z,38.90
2022-09-03T09:25:21.409Z,38.70
2022-09-03T09:28:20.052Z,38.30
2022-09-03T09:30:50.114Z,38.10
2022-09-03T09:33:18.358Z,38.00
2022-09-03T09:35:45.964Z,37.80
2022-09-03T09:38:14.064Z,37.70
2022-09-03T09:40:45.653Z,37.60
2022-09-03T09:43:19.238Z,37.40
2022-09-03T09:45:50.467Z,37.20
2022-09-03T09:48:31.500Z,37.20
2022-09-03T09:51:28.246Z,37.10
2022-09-03T09:54:27.818Z,36.70
2022-09-03T09:57:06.871Z,36.40
2022-09-03T09:59:38.131Z,36.30
2022-09-03T10:02:22.177Z,36.40
2022-09-03T10:04:50.073Z,36.40
2022-09-03T10:07:24.574Z,36.20
2022-09-03T10:10:14.934Z,36.30
2022-09-03T10:12:51.166Z,36.00
2022-09-03T10:15:31.215Z,35.90
2022-09-03T10:18:15.246Z,35.80
2022-09-03T10:20:54.722Z,35.60
2022-09-03T10:23:32.482Z,35.60
2022-09-03T10:26:15.100Z,35.40
2022-09-03T10:28:42.983Z,35.20
2022-09-03T10:31:43.992Z,35.00
2022-09-03T10:34:23.927Z,34.70
2022-09-03T10:37:09.733Z,34.80
2022-09-03T10:40:06.300Z,34.70
2022-09-03T10:42:55.769Z,34.30
2022-09-03T10:45:50.694Z,34.20
2022-09-03T10:48:54.228Z,34.20
2022-09-03T10:51:34.133Z,33.80
2022-09-03T10:54:24.278Z,33.50
2022-09-03T10:57:03.624Z,33.20
2022-09-03T10:59:54.139Z,33.50
2022-09-03T11:02:41.423Z,33.30
2022-09-03T11:05:29.921Z,33.20
2022-09-03T11:08:10.334Z,33.10
2022-09-03T11:10:50.633Z,33.00
2022-09-03T11:14:00.940Z,32.70
2022-09-03T11:16:33.512Z,32.60
2022-09-03T11:19:07.751Z,32.50
2022-09-03T11:21:38.239Z,32.30
2022-09-03T11:24:35.653Z,32.20
2022-09-03T11:27:36.838Z,32.10
2022-09-03T11:30:07.494Z,32.10
2022-09-03T11:32:40.861Z,32.00
2022-09-03T11:35:29.305Z,31.80
2022-09-03T11:38:02.392Z,31.70
2022-09-03T11:40:36.856Z,31.80
2022-09-03T11:43:33.972Z,31.60
2022-09-03T11:46:12.711Z,31.50
2022-09-03T11:48:48.280Z,31.60
2022-09-03T11:51:30.633Z,31.30
2022-09-03T11:54:02.161Z,31.10
2022-09-03T11:56:31.741Z,31.30
2022-09-03T11:59:02.727Z,31.00
2022-09-03T12:01:31.232Z,30.90
2022-09-03T12:04:09.799Z,31.00
2022-09-03T12:06:54.882Z,30.90
2022-09-03T12:09:59.059Z,30.90
2022-09-03T12:12:57.333Z,30.70
2022-09-03T12:15:48.758Z,30.70
2022-09-03T12:18:33.771Z,30.50
2022-09-03T12:21:04.166Z,30.40
2022-09-03T12:23:33.344Z,30.40
2022-09-03T12:26:15.006Z,30.10
2022-09-03T12:28:51.825Z,30.20
2022-09-03T12:31:22.601Z,29.90
2022-09-03T12:33:55.769Z,30.00
2022-09-03T12:36:23.584Z,29.80
2022-09-03T12:39:11.064Z,29.90
2022-09-03T12:41:52.610Z,30.00
2022-09-03T12:44:36.792Z,29.80
2022-09-03T12:47:35.770Z,29.80
2022-09-03T12:50:10.927Z,29.90
2022-09-03T12:53:03.391Z,29.60
2022-09-03T12:55:42.628Z,29.50
2022-09-03T12:58:26.702Z,29.40
2022-09-03T13:01:00.399Z,29.30
2022-09-03T13:03:46.303Z,29.20
2022-09-03T13:06:16.473Z,29.30
2022-09-03T13:08:55.158Z,29.30
2022-09-03T13:11:24.619Z,29.30
2022-09-03T13:14:12.498Z,29.30
2022-09-03T13:17:10.471Z,29.20
2022-09-03T13:20:24.928Z,28.90
2022-09-03T13:23:12.020Z,29.00
2022-09-03T13:25:53.013Z,28.80
2022-09-03T13:28:34.972Z,28.90
2022-09-03T13:31:34.410Z,28.80
2022-09-03T13:34:09.954Z,28.70
2022-09-03T13:36:48.911Z,28.50
2022-09-03T13:39:26.751Z,28.50
2022-09-03T13:42:06.211Z,28.50
2022-09-03T13:44:39.003Z,28.40
2022-09-03T13:47:16.547Z,28.40
2022-09-03T13:50:11.174Z,28.10
2022-09-03T13:53:04.865Z,28.10
2022-09-03T13:55:31.579Z,28.00
2022-09-03T13:58:22.257Z,28.10
2022-09-03T14:01:06.485Z,27.80
2022-09-03T14:03:37.664Z,27.60
2022-09-03T14:06:20.519Z,27.30
2022-09-03T14:08:58.989Z,27.30
2022-09-03T14:11:57.636Z,27.40
2022-09-03T14:14:43.595Z,27.00
2022-09-03T14:17:33.134Z,26.90
2022-09-03T14:20:07.285Z,26.80
2022-09-03T14:22:50.827Z,26.70
2022-09-03T14:25:22.804Z,26.80
2022-09-03T14:27:50.125Z,27.00
2022-09-03T14:30:19.485Z,27.20
2022-09-03T14:33:09.943Z,26.90
2022-09-03T14:35:42.644Z,26.80
2022-09-03T14:38:25.887Z,26.80
2022-09-03T14:41:30.879Z,26.80
2022-09-03T14:44:31.014Z,26.80
2022-09-03T14:47:06.373Z,26.50
2022-09-03T14:49:57.417Z,26.50
2022-09-03T14:52:38.894Z,26.70
2022-09-03T14:55:30.637Z,26.40
2022-09-03T14:58:18.470Z,26.10
2022-09-03T15:00:50.784Z,26.10
2022-09-03T15:03:34.503Z,26.30
2022-09-03T15:06:31.210Z,26.30
2022-09-03T15:09:34.143Z,26.50
2022-09-03T15:12:08.572Z,26.50
2022-09-03T15:14:36.230Z,26.50
2022-09-03T15:17:15.039Z,26.50
2022-09-03T15:20:11.115Z,26.50
2022-09-03T15:22:58.026Z,26.50
2022-09-03T15:26:04.738Z,26.50
2022-09-03T15:28:49.550Z,26.70
2022-09-03T15:31:42.273Z,26.80
2022-09-03T15:34:42.379Z,26.90
2022-09-03T15:37:26.134Z,26.90
2022-09-03T15:40:30.684Z,26.90
2022-09-03T15:43:07.028Z,26.80
2022-09-03T15:45:49.570Z,27.00
2022-09-03T15:48:16.777Z,26.70
2022-09-03T15:50:53.072Z,26.90
2022-09-03T15:53:53.123Z,27.10
2022-09-03T15:56:53.525Z,27.10
2022-09-03T15:59:26.639Z,27.30
2022-09-03T16:02:20.037Z,27.40
2022-09-03T16:05:07.892Z,27.40
2022-09-03T16:07:37.401Z,27.40
2022-09-03T16:10:30.778Z,27.30
2022-09-03T16:13:26.575Z,27.40
2022-09-03T16:16:02.018Z,27.70
2022-09-03T16:18:37.240Z,27.60
2022-09-03T16:21:23.411Z,27.70
2022-09-03T16:23:58.905Z,27.80
2022-09-03T16:26:41.277Z,28.00
2022-09-03T16:29:16.428Z,28.00
2022-09-03T16:31:52.247Z,28.20
2022-09-03T16:34:45.889Z,28.30
2022-09-03T16:37:34.743Z,28.50
2022-09-03T16:40:10.193Z,28.50
2022-09-03T16:43:23.794Z,28.60
2022-09-03T16:46:33.670Z,28.60
2022-09-03T16:49:10.825Z,28.70
2022-09-03T16:51:40.753Z,29.00
2022-09-03T16:54:32.318Z,29.20
2022-09-03T16:57:21.894Z,29.50
2022-09-03T17:00:11.587Z,29.50
2022-09-03T17:02:50.386Z,29.60
2022-09-03T17:06:00.718Z,29.80
2022-09-03T17:08:31.136Z,29.90
2022-09-03T17:11:15.563Z,30.00
2022-09-03T17:14:31.306Z,30.00
2022-09-03T17:17:25.404Z,29.90
2022-09-03T17:20:04.718Z,30.10
2022-09-03T17:23:00.320Z,30.30
2022-09-03T17:25:41.281Z,30.50
2022-09-03T17:28:31.549Z,30.50
2022-09-03T17:31:04.581Z,30.60
2022-09-03T17:33:59.978Z,30.80
2022-09-03T17:36:31.273Z,31.10
2022-09-03T17:39:36.140Z,31.20
2022-09-03T17:42:21.006Z,31.50
2022-09-03T17:44:53.975Z,31.70
2022-09-03T17:48:00.532Z,31.80
2022-09-03T17:50:55.400Z,32.10
2022-09-03T17:53:44.243Z,32.20
2022-09-03T17:56:29.476Z,32.30
2022-09-03T17:59:17.121Z,32.50
2022-09-03T18:01:59.129Z,32.50
2022-09-03T18:04:47.253Z,32.70
2022-09-03T18:07:32.278Z,32.80
2022-09-03T18:10:17.265Z,32.80
2022-09-03T18:13:23.770Z,32.90
2022-09-03T18:16:05.782Z,33.00
2022-09-03T18:18:37.123Z,33.10
2022-09-03T18:21:31.681Z,33.10
2022-09-03T18:24:21.896Z,33.30
2022-09-03T18:27:19.962Z,33.30
2022-09-03T18:30:24.045Z,33.40
2022-09-03T18:33:10.452Z,33.40
2022-09-03T18:35:57.112Z,33.50
2022-09-03T18:38:49.895Z,33.70
2022-09-03T18:41:41.823Z,34.00
2022-09-03T18:44:42.468Z,33.90
2022-09-03T18:48:02.073Z,34.10
2022-09-03T18:51:08.542Z,34.10
2022-09-03T18:54:12.976Z,34.30
2022-09-03T18:57:08.385Z,34.50
2022-09-03T19:00:05.927Z,34.60
2022-09-03T19:03:06.291Z,34.60
2022-09-03T19:06:32.819Z,34.70
2022-09-03T19:09:46.035Z,34.80
2022-09-03T19:12:59.646Z,35.00
2022-09-03T19:15:51.281Z,35.20
2022-09-03T19:19:19.849Z,35.40
2022-09-03T19:22:11.177Z,35.70
2022-09-03T19:24:56.635Z,35.70
2022-09-03T19:28:00.212Z,35.90
2022-09-03T19:31:01.677Z,36.10
2022-09-03T19:34:39.766Z,36.10
2022-09-03T19:37:34.274Z,36.30
2022-09-03T19:40:55.596Z,36.40
2022-09-03T19:43:47.075Z,36.40
2022-09-03T19:46:36.442Z,36.60
2022-09-03T19:49:38.132Z,36.70
2022-09-03T19:52:44.286Z,37.10
2022-09-03T19:55:33.983Z,37.20
2022-09-03T19:58:41.595Z,37.30
2022-09-03T20:01:27.191Z,37.30
2022-09-03T20:04:17.028Z,37.30
2022-09-03T20:07:04.608Z,37.40
2022-09-03T20:09:56.413Z,37.60
2022-09-03T20:12:25.955Z,37.60
2022-09-03T20:14:53.146Z,37.60
2022-09-03T20:17:29.194Z,37.70
2022-09-03T20:20:25.408Z,37.90
2022-09-03T20:23:09.625Z,38.10
2022-09-03T20:26:23.980Z,38.20
2022-09-03T20:29:14.733Z,38.30
2022-09-03T20:31:59.635Z,38.50
2022-09-03T20:34:38.213Z,38.70
2022-09-03T20:37:28.239Z,38.70
2022-09-03T20:40:01.221Z,38.80
2022-09-03T20:42:47.138Z,38.70
2022-09-03T20:45:24.824Z,38.90
2022-09-03T20:48:03.591Z,39.00
2022-09-03T20:50:56.624Z,39.20
2022-09-03T20:53:43.681Z,39.30
2022-09-03T20:56:36.167Z,39.30
2022-09-03T20:59:13.837Z,39.40
2022-09-03T21:02:05.449Z,39.50
2022-09-03T21:05:10.078Z,39.60
2022-09-03T21:08:13.787Z,39.60
2022-09-03T21:11:09.377Z,39.70
2022-09-03T21:14:05.614Z,39.70
2022-09-03T21:16:56.889Z,39.90
2022-09-03T21:19:58.815Z,40.00
2022-09-03T21:22:52.709Z,40.20
2022-09-03T21:25:39.940Z,40.40
2022-09-03T21:28:26.289Z,40.60
2022-09-03T21:31:02.943Z,40.80
2022-09-03T21:33:34.828Z,40.90
2022-09-03T21:36:25.841Z,41.10
2022-09-03T21:38:59.676Z,41.40
2022-09-03T21:41:34.504Z,41.50
2022-09-03T21:44:16.387Z,41.60
2022-09-03T21:47:01.854Z,41.90
2022-09-03T21:49:36.944Z,42.10
2022-09-03T21:52:11.495Z,42.10
2022-09-03T21:54:39.043Z,42.30
2022-09-03T21:57:08.896Z,42.40
2022-09-03T22:00:22.113Z,42.70
2022-09-03T22:02:49.899Z,42.90
2022-09-03T22:05:18.520Z,42.90
2022-09-03T22:08:04.756Z,43.00
2022-09-03T22:10:43.501Z,43.20
2022-09-03T22:13:21.337Z,43.30
2022-09-03T22:15:51.324Z,43.40
2022-09-03T22:18:30.994Z,43.50
2022-09-03T22:21:17.248Z,43.70
2022-09-03T22:23:58.313Z,43.90
2022-09-03T22:26:51.317Z,43.90
2022-09-03T22:29:46.499Z,44.10
2022-09-03T22:32:29.285Z,44.20
2022-09-03T22:35:10.780Z,44.20
2022-09-03T22:37:58.663Z,44.40
2022-09-03T22:40:59.082Z,44.60
2022-09-03T22:43:39.547Z,44.80
2022-09-03T22:46:15.571Z,44.90
2022-09-03T22:48:51.453Z,45.10
2022-09-03T22:51:21.786Z,45.40
2022-09-03T22:54:00.978Z,45.50
2022-09-03T22:56:33.479Z,45.70
2022-09-03T22:59:21.903Z,45.70
2022-09-03T23:02:02.635Z,45.90
2022-09-03T23:04:58.738Z,46.00
2022-09-03T23:07:34.976Z,46.10
2022-09-03T23:10:09.577Z,46.10
2022-09-03T23:12:48.084Z,46.30
2022-09-03T23:15:23.121Z,46.60
2022-09-03T23:18:17.581Z,46.60
2022-09-03T23:20:53.291Z,46.90
2022-09-03T23:23:31.059Z,46.90
2022-09-03T23:26:16.538Z,47.00
2022-09-03T23:28:49.144Z,47.10
2022-09-03T23:31:19.477Z,47.10
2022-09-03T23:33:47.949Z,47.20
2022-09-03T23:37:22.336Z,47.50
2022-09-03T23:40:04.028Z,47.80
2022-09-03T23:42:55.460Z,47.70
2022-09-03T23:45:31.683Z,47.80
2022-09-03T23:48:12.013Z,47.80
2022-09-03T23:51:01.571Z,47.80
2022-09-03T23:54:06.713Z,47.80
2022-09-03T23:57:06.568Z,48.00
